Time;durP1;ratioP1;P1;durP2;ratioP2;P2;SDS_P1;SDS_P2;PMS_P1;PMS_P2;Temp;Humidity;BMP_temperature;BMP_pressure;BME280_temperature;BME280_humidity;BME280_pressure;Samples;Min_cycle;Max_cycle;Signal;HPM_P1;HPM_P2
2021/09/27 00:01:28;;;;;;;32.30;20.20;;;;;;;14.85;73.50;99428.75;113125;1195;95276;-73
2021/09/27 00:04:00;;;;;;;32.10;21.20;;;;;;;14.84;73.60;99423.19;113088;1195;111013;-71
2021/09/27 00:06:28;;;;;;;29.40;20.20;;;;;;;14.82;73.62;99425.30;113096;1195;97595;-69
2021/09/27 00:08:56;;;;;;;34.10;21.10;;;;;;;14.81;73.66;99421.48;112941;1195;107517;-69
2021/09/27 00:11:29;;;;;;;31.80;20.00;;;;;;;14.78;73.70;99419.54;113089;1195;97636;-70
2021/09/27 00:14:03;;;;;;;29.30;19.30;;;;;;;14.76;73.56;99415.60;113147;1195;97572;-70
2021/09/27 00:16:33;;;;;;;30.70;18.50;;;;;;;14.72;73.67;99413.38;113111;1195;110285;-70
2021/09/27 00:19:04;;;;;;;29.70;18.70;;;;;;;14.70;73.81;99410.21;113015;1195;95123;-72
2021/09/27 00:21:34;;;;;;;28.80;18.00;;;;;;;14.69;73.78;99409.96;113109;1195;108033;-71
2021/09/27 00:24:10;;;;;;;30.60;17.80;;;;;;;14.67;73.79;99411.69;113112;1195;98376;-71
2021/09/27 00:26:38;;;;;;;28.90;18.00;;;;;;;14.64;73.77;99408.54;113063;1196;95485;-72
2021/09/27 00:29:10;;;;;;;27.40;17.50;;;;;;;14.62;73.82;99407.45;113230;1195;112093;-70
2021/09/27 00:31:39;;;;;;;27.80;16.90;;;;;;;14.60;73.85;99404.58;113230;1195;97638;-71
2021/09/27 00:34:07;;;;;;;28.80;18.60;;;;;;;14.59;73.87;99402.38;113191;1195;107577;-71
2021/09/27 00:36:35;;;;;;;29.30;17.10;;;;;;;14.57;73.82;99402.02;113196;1195;97619;-70
2021/09/27 00:39:07;;;;;;;29.40;18.10;;;;;;;14.55;73.87;99399.33;113076;1195;97647;-71
2021/09/27 00:41:37;;;;;;;35.10;18.70;;;;;;;14.53;73.95;99397.52;113182;1195;111106;-71
2021/09/27 00:44:09;;;;;;;31.30;17.40;;;;;;;14.52;73.99;99399.92;113194;1195;98063;-69
2021/09/27 00:46:37;;;;;;;29.10;17.00;;;;;;;14.51;73.97;99397.34;113285;1195;108512;-70
2021/09/27 00:49:09;;;;;;;27.20;16.60;;;;;;;14.49;73.99;99397.14;113179;1195;97656;-71
2021/09/27 00:51:45;;;;;;;30.60;18.30;;;;;;;14.48;73.96;99389.73;113216;1195;97572;-68
2021/09/27 00:54:22;;;;;;;27.10;16.70;;;;;;;14.47;73.99;99386.61;113278;1195;110691;-69
2021/09/27 00:57:03;;;;;;;29.60;16.80;;;;;;;14.46;74.12;99384.16;113257;1187;97631;-69
2021/09/27 00:59:36;;;;;;;30.60;16.90;;;;;;;14.46;74.08;99388.61;113304;1195;107163;-72
2021/09/27 01:02:04;;;;;;;26.40;15.80;;;;;;;14.47;74.14;99394.62;113079;1196;97664;-72
2021/09/27 01:04:41;;;;;;;26.80;15.80;;;;;;;14.47;74.18;99394.64;113141;1195;96067;-69
2021/09/27 01:07:32;;;;;;;28.10;16.00;;;;;;;14.47;74.14;99394.08;113049;1196;111199;-72
2021/09/27 01:10:17;;;;;;;25.30;15.70;;;;;;;14.45;74.24;99393.48;113028;1196;97890;-69
2021/09/27 01:12:48;;;;;;;26.30;15.70;;;;;;;14.45;74.23;99395.53;113210;1195;107573;-69
2021/09/27 01:15:38;;;;;;;26.60;15.20;;;;;;;14.44;74.30;99395.93;113873;1194;97519;-69
2021/09/27 01:18:32;;;;;;;27.90;14.90;;;;;;;14.46;74.32;99392.95;113178;1195;98277;-69
2021/09/27 01:21:21;;;;;;;32.60;15.30;;;;;;;14.45;74.26;99390.31;113177;1195;110974;-72
2021/09/27 01:24:08;;;;;;;29.10;14.50;;;;;;;14.45;74.40;99390.84;113205;1195;97509;-72
2021/09/27 01:27:09;;;;;;;24.80;13.60;;;;;;;14.45;74.39;99391.23;113146;1195;107525;-67
2021/09/27 01:29:48;;;;;;;24.60;14.00;;;;;;;14.45;74.36;99392.81;113154;1195;97550;-70
2021/09/27 01:32:18;;;;;;;26.90;14.50;;;;;;;14.45;74.49;99388.70;113003;1196;97681;-71
2021/09/27 01:35:51;;;;;;;24.90;13.80;;;;;;;14.47;74.42;99388.59;113045;1196;111176;-69
2021/09/27 01:38:44;;;;;;;25.70;14.70;;;;;;;14.45;74.47;99386.91;112748;1200;95188;-74
2021/09/27 01:41:23;;;;;;;26.70;14.10;;;;;;;14.45;74.40;99387.66;112742;1198;107550;-70
2021/09/27 01:44:09;;;;;;;26.40;13.70;;;;;;;14.45;74.51;99387.84;112971;1197;97660;-75
2021/09/27 01:47:07;;;;;;;25.40;13.90;;;;;;;14.46;74.53;99386.16;113110;1196;97585;-73
2021/09/27 01:49:55;;;;;;;24.30;13.50;;;;;;;14.45;74.48;99384.96;112828;1196;110988;-69
2021/09/27 01:52:35;;;;;;;24.40;12.90;;;;;;;14.45;74.55;99388.33;112865;1196;97563;-73
2021/09/27 01:55:15;;;;;;;22.30;11.90;;;;;;;14.44;74.52;99390.21;113144;1197;107475;-70
2021/09/27 01:58:12;;;;;;;25.00;12.90;;;;;;;14.44;74.53;99392.73;113175;1195;97584;-71
2021/09/27 02:00:49;;;;;;;24.30;12.80;;;;;;;14.43;74.59;99388.11;113244;1196;97667;-67
2021/09/27 02:03:36;;;;;;;24.90;12.60;;;;;;;14.43;74.62;99386.34;112795;1196;111187;-70
2021/09/27 02:06:20;;;;;;;27.20;13.00;;;;;;;14.43;74.63;99383.13;112780;1196;95045;-70
2021/09/27 02:08:56;;;;;;;22.80;11.40;;;;;;;14.44;74.65;99386.66;113433;1195;107066;-72
2021/09/27 02:11:36;;;;;;;24.00;12.30;;;;;;;14.45;74.65;99386.25;113178;1195;97560;-70
2021/09/27 02:14:19;;;;;;;21.60;11.90;;;;;;;14.43;74.64;99385.27;112777;1196;97692;-69
2021/09/27 02:17:10;;;;;;;23.20;12.70;;;;;;;14.42;74.68;99387.31;113111;1196;111166;-72
2021/09/27 02:19:47;;;;;;;25.10;11.80;;;;;;;14.42;74.73;99388.25;112909;1196;95117;-73
2021/09/27 02:22:18;;;;;;;22.90;11.70;;;;;;;14.43;74.74;99386.56;113039;1196;107593;-73
2021/09/27 02:25:21;;;;;;;24.00;11.70;;;;;;;14.43;74.76;99384.42;113107;1196;97590;-69
2021/09/27 02:27:55;;;;;;;21.90;11.80;;;;;;;14.44;74.78;99387.56;113106;1197;98092;-72
2021/09/27 02:30:43;;;;;;;24.50;11.70;;;;;;;14.44;74.76;99386.85;112737;1197;111159;-72
2021/09/27 02:33:34;;;;;;;21.20;11.40;;;;;;;14.43;74.88;99384.91;112790;1197;97618;-72
2021/09/27 02:36:20;;;;;;;22.10;11.20;;;;;;;14.43;74.74;99383.33;113134;1196;106531;-75
2021/09/27 02:39:07;;;;;;;22.30;11.20;;;;;;;14.42;74.89;99379.67;112767;1197;95215;-68
2021/09/27 02:41:56;;;;;;;24.80;11.50;;;;;;;14.42;74.85;99377.03;113165;1196;97601;-69
2021/09/27 02:44:28;;;;;;;21.90;11.40;;;;;;;14.41;74.80;99374.46;113109;1196;111148;-69
2021/09/27 02:47:01;;;;;;;20.30;10.20;;;;;;;14.39;74.87;99376.02;113087;1180;97684;-68
2021/09/27 02:49:43;;;;;;;24.40;11.00;;;;;;;14.37;74.89;99377.80;113028;1196;107584;-70
2021/09/27 02:52:21;;;;;;;25.20;12.20;;;;;;;14.36;74.92;99378.73;113145;1195;97692;-71
2021/09/27 02:54:54;;;;;;;23.00;10.70;;;;;;;14.37;74.86;99374.42;113122;1195;95032;-71
2021/09/27 02:57:57;;;;;;;20.70;10.40;;;;;;;14.35;74.97;99372.95;113269;1196;111177;-72
2021/09/27 03:00:40;;;;;;;23.10;10.80;;;;;;;14.33;74.92;99373.64;113122;1196;98005;-70
2021/09/27 03:03:35;;;;;;;21.30;9.20;;;;;;;14.32;74.89;99372.34;113154;1195;107559;-74
2021/09/27 03:06:23;;;;;;;23.60;9.70;;;;;;;14.31;75.02;99367.39;112956;1197;97647;-71
2021/09/27 03:09:03;;;;;;;20.50;9.60;;;;;;;14.31;74.96;99368.12;113146;1195;97587;-73
2021/09/27 03:11:43;;;;;;;22.90;9.70;;;;;;;14.30;74.94;99366.73;113898;1195;111118;-74
2021/09/27 03:14:49;;;;;;;21.10;9.90;;;;;;;14.29;74.97;99369.90;113206;1195;97585;-74
2021/09/27 03:17:32;;;;;;;20.10;8.90;;;;;;;14.26;74.92;99367.83;112705;1199;107544;-71
2021/09/27 03:20:37;;;;;;;20.30;9.40;;;;;;;14.24;74.95;99368.69;112772;1200;97669;-73
2021/09/27 03:23:24;;;;;;;21.80;9.40;;;;;;;14.21;74.97;99366.27;113161;1195;95265;-72
2021/09/27 03:26:18;;;;;;;24.40;9.40;;;;;;;14.18;74.98;99365.61;113188;1187;111170;-71
2021/09/27 03:29:36;;;;;;;22.20;9.20;;;;;;;14.15;74.92;99366.39;113757;1195;95777;-72
2021/09/27 03:32:23;;;;;;;19.30;9.60;;;;;;;14.11;74.98;99364.89;113037;1195;107576;-72
2021/09/27 03:35:18;;;;;;;20.70;9.40;;;;;;;14.10;75.08;99365.19;113184;1195;97590;-72
2021/09/27 03:38:11;;;;;;;23.20;8.10;;;;;;;14.10;75.11;99362.53;113194;1195;97825;-71
2021/09/27 03:40:59;;;;;;;22.90;9.60;;;;;;;14.10;75.08;99360.56;112915;1196;110870;-71
2021/09/27 03:43:38;;;;;;;17.50;8.20;;;;;;;14.08;75.11;99358.55;113195;1195;98671;-72
2021/09/27 03:46:38;;;;;;;19.70;8.30;;;;;;;14.08;75.08;99356.27;113169;1195;107373;-71
2021/09/27 03:49:24;;;;;;;23.10;9.20;;;;;;;14.06;75.16;99357.86;113211;1195;95036;-71
2021/09/27 03:52:08;;;;;;;20.70;8.40;;;;;;;14.03;75.07;99351.51;113174;1196;97670;-71
2021/09/27 03:54:47;;;;;;;20.70;8.40;;;;;;;14.01;75.12;99352.55;113154;1196;111325;-72
2021/09/27 03:57:35;;;;;;;20.30;9.00;;;;;;;13.99;75.11;99357.70;113104;1196;97561;-71
2021/09/27 04:00:18;;;;;;;21.30;8.20;;;;;;;13.95;75.12;99353.58;113146;1197;107426;-71
2021/09/27 04:02:54;;;;;;;20.60;8.90;;;;;;;13.94;75.07;99352.46;113170;1197;96625;-70
2021/09/27 04:05:48;;;;;;;19.70;8.30;;;;;;;13.92;75.10;99353.83;112846;1196;97421;-70
2021/09/27 04:08:53;;;;;;;21.60;7.90;;;;;;;13.91;75.12;99356.77;113086;1196;110283;-68
2021/09/27 04:11:27;;;;;;;22.50;7.80;;;;;;;13.89;75.21;99357.13;113087;1197;98106;-70
2021/09/27 04:14:04;;;;;;;18.80;7.60;;;;;;;13.87;75.19;99353.20;113105;1195;107501;-71
2021/09/27 04:16:53;;;;;;;20.60;8.50;;;;;;;13.85;75.13;99350.47;113182;1195;97558;-71
2021/09/27 04:20:02;;;;;;;21.00;8.00;;;;;;;13.85;75.18;99353.71;113186;1195;97658;-70
2021/09/27 04:22:46;;;;;;;21.00;8.20;;;;;;;13.83;75.22;99351.86;113042;1196;110897;-70
2021/09/27 04:25:37;;;;;;;20.10;8.20;;;;;;;13.82;75.25;99348.38;112837;1196;97560;-72
2021/09/27 04:28:29;;;;;;;20.70;7.80;;;;;;;13.80;75.23;99353.03;112934;1195;107510;-73
2021/09/27 04:31:35;;;;;;;22.50;8.40;;;;;;;13.78;75.20;99355.88;113096;1195;96338;-74
2021/09/27 04:34:15;;;;;;;19.90;7.80;;;;;;;13.74;75.26;99349.96;113063;1195;95825;-69
2021/09/27 04:36:52;;;;;;;24.50;8.40;;;;;;;13.72;75.22;99348.34;113805;1187;111697;-72
2021/09/27 04:39:22;;;;;;;21.00;7.50;;;;;;;13.70;75.26;99355.94;113085;1195;97441;-71
2021/09/27 04:41:56;;;;;;;21.90;8.30;;;;;;;13.70;75.26;99358.23;112998;1195;107526;-72
2021/09/27 04:45:02;;;;;;;19.20;7.40;;;;;;;13.70;75.27;99357.92;113830;1196;97582;-72
2021/09/27 04:47:57;;;;;;;18.00;7.50;;;;;;;13.67;75.26;99354.23;113062;1195;99803;-72
2021/09/27 04:50:50;;;;;;;21.70;7.20;;;;;;;13.66;75.31;99357.92;113131;1195;111288;-72
2021/09/27 04:53:34;;;;;;;21.80;7.70;;;;;;;13.65;75.28;99353.52;113225;1195;97525;-72
2021/09/27 04:56:27;;;;;;;17.00;7.00;;;;;;;13.64;75.24;99357.13;112895;1195;107696;-70
2021/09/27 04:58:59;;;;;;;22.10;8.10;;;;;;;13.66;75.38;99356.31;112959;1195;96165;-72
2021/09/27 05:01:33;;;;;;;14.80;6.30;;;;;;;13.65;75.27;99361.17;113075;1196;97659;-72
2021/09/27 05:04:10;;;;;;;19.30;7.40;;;;;;;13.65;75.31;99356.55;113019;1195;109258;-71
2021/09/27 05:06:38;;;;;;;18.60;7.10;;;;;;;13.65;75.31;99359.40;112969;1195;97618;-71
2021/09/27 05:09:12;;;;;;;20.10;7.20;;;;;;;13.64;75.27;99358.80;113090;1195;107529;-71
2021/09/27 05:12:00;;;;;;;20.90;7.90;;;;;;;13.62;75.26;99359.44;112977;1181;97652;-71
2021/09/27 05:14:45;;;;;;;23.60;7.80;;;;;;;13.62;75.27;99362.67;112991;1195;97635;-70
2021/09/27 05:17:43;;;;;;;21.10;8.00;;;;;;;13.63;75.29;99360.13;112960;1195;110750;-69
2021/09/27 05:20:29;;;;;;;18.00;7.80;;;;;;;13.63;75.35;99357.28;113092;1195;97570;-72
2021/09/27 05:23:22;;;;;;;21.60;7.40;;;;;;;13.64;75.35;99354.53;113075;1197;107537;-71
2021/09/27 05:26:02;;;;;;;23.60;7.80;;;;;;;13.64;75.41;99356.97;113020;1195;97591;-71
2021/09/27 05:28:33;;;;;;;22.20;7.60;;;;;;;13.65;75.37;99356.70;112911;1195;97663;-71
2021/09/27 05:31:19;;;;;;;20.00;8.00;;;;;;;13.65;75.26;99355.30;112956;1197;111205;-71
2021/09/27 05:34:12;;;;;;;18.40;7.50;;;;;;;13.65;75.36;99350.80;113030;1197;97593;-70
2021/09/27 05:37:10;;;;;;;20.10;7.30;;;;;;;13.65;75.40;99354.19;113064;1196;107641;-71
2021/09/27 05:40:03;;;;;;;19.50;8.00;;;;;;;13.66;75.39;99355.04;113017;1195;97653;-71
2021/09/27 05:42:43;;;;;;;26.50;8.40;;;;;;;13.66;75.40;99355.23;113072;1181;95152;-71
2021/09/27 05:45:27;;;;;;;26.10;8.20;;;;;;;13.65;75.36;99358.17;112929;1195;110799;-70
2021/09/27 05:48:03;;;;;;;23.20;8.00;;;;;;;13.63;75.31;99355.96;112969;1196;97656;-72
2021/09/27 05:50:47;;;;;;;24.00;8.20;;;;;;;13.63;75.43;99361.67;113097;1196;107610;-70
2021/09/27 05:53:29;;;;;;;18.20;7.30;;;;;;;13.64;75.43;99363.03;113121;1195;97650;-71
2021/09/27 05:56:10;;;;;;;29.60;8.70;;;;;;;13.64;75.39;99360.55;113080;1197;97605;-72
2021/09/27 05:59:17;;;;;;;18.20;7.30;;;;;;;13.63;75.47;99361.84;112868;1196;110629;-71
2021/09/27 06:02:29;;;;;;;19.70;7.80;;;;;;;13.65;75.46;99357.27;113021;1187;95605;-72
2021/09/27 06:05:52;;;;;;;27.70;12.50;;;;;;;13.65;75.41;99356.67;113132;1195;107611;-71
2021/09/27 06:08:37;;;;;;;21.90;7.90;;;;;;;13.69;75.55;99353.88;112968;1196;96271;-73
2021/09/27 06:11:48;;;;;;;20.30;7.00;;;;;;;13.72;75.58;99354.24;113078;1196;97678;-73
2021/09/27 06:14:20;;;;;;;20.20;7.00;;;;;;;13.76;75.60;99357.85;113085;1196;111198;-73
2021/09/27 06:17:20;;;;;;;19.00;7.50;;;;;;;13.79;75.48;99354.38;113165;1195;96563;-72
2021/09/27 06:20:15;;;;;;;20.50;7.60;;;;;;;13.83;75.59;99354.70;113129;1195;107718;-71
2021/09/27 06:22:54;;;;;;;25.80;8.70;;;;;;;13.88;75.61;99355.05;113205;1195;95058;-73
2021/09/27 06:26:00;;;;;;;20.30;7.80;;;;;;;13.93;75.62;99356.96;113188;1195;97673;-71
2021/09/27 06:28:30;;;;;;;52.20;28.80;;;;;;;13.97;75.60;99356.77;112813;1197;111161;-71
2021/09/27 06:31:13;;;;;;;27.90;11.80;;;;;;;14.02;75.62;99360.54;112996;1196;97631;-71
2021/09/27 06:34:00;;;;;;;19.00;8.10;;;;;;;14.08;75.67;99360.34;112754;1196;108317;-72
2021/09/27 06:36:34;;;;;;;23.90;9.20;;;;;;;14.14;75.64;99362.36;112839;1196;97692;-70
2021/09/27 06:39:12;;;;;;;20.60;7.30;;;;;;;14.20;75.62;99361.92;113005;1197;97625;-71
2021/09/27 06:41:44;;;;;;;22.20;8.30;;;;;;;14.25;75.66;99363.41;113010;1196;111107;-71
2021/09/27 06:44:17;;;;;;;20.90;8.50;;;;;;;14.30;75.69;99365.69;113179;1196;97662;-71
2021/09/27 06:46:45;;;;;;;19.00;9.00;;;;;;;14.35;75.67;99359.94;113182;1196;106445;-70
2021/09/27 06:49:18;;;;;;;20.60;7.90;;;;;;;14.40;75.64;99361.83;113124;1198;97634;-71
2021/09/27 06:51:46;;;;;;;21.20;8.60;;;;;;;14.44;75.72;99356.34;113170;1195;98309;-71
2021/09/27 06:54:16;;;;;;;23.20;8.10;;;;;;;14.48;75.71;99360.23;113104;1195;111188;-70
2021/09/27 06:56:46;;;;;;;18.70;7.90;;;;;;;14.54;75.73;99361.20;113123;1195;97756;-70
2021/09/27 06:59:20;;;;;;;22.60;8.90;;;;;;;14.60;75.78;99365.36;113051;1196;108479;-70
2021/09/27 07:01:50;;;;;;;26.90;14.40;;;;;;;14.66;75.73;99366.80;112990;1196;97694;-71
2021/09/27 07:04:21;;;;;;;26.00;10.20;;;;;;;14.71;75.77;99365.33;113153;1195;98388;-70
2021/09/27 07:06:49;;;;;;;21.10;8.20;;;;;;;14.77;75.74;99364.31;113023;1196;111281;-70
2021/09/27 07:09:19;;;;;;;23.50;9.30;;;;;;;14.82;75.73;99365.98;112946;1195;95719;-72
2021/09/27 07:11:47;;;;;;;20.50;8.20;;;;;;;14.88;75.73;99365.30;112997;1195;107503;-70
2021/09/27 07:14:15;;;;;;;23.50;9.30;;;;;;;14.94;75.75;99366.77;112972;1197;97742;-72
2021/09/27 07:16:43;;;;;;;23.50;9.30;;;;;;;14.99;75.84;99364.19;113069;1195;97559;-73
2021/09/27 07:19:13;;;;;;;24.50;8.80;;;;;;;15.04;75.76;99365.39;113022;1195;110942;-73
2021/09/27 07:21:43;;;;;;;23.50;8.50;;;;;;;15.09;75.74;99363.70;112935;1196;97658;-70
2021/09/27 07:24:15;;;;;;;23.30;8.40;;;;;;;15.15;75.84;99366.21;113056;1195;107542;-71
2021/09/27 07:26:43;;;;;;;20.90;8.70;;;;;;;15.22;75.77;99370.25;113120;1195;98675;-71
2021/09/27 07:29:11;;;;;;;25.70;9.30;;;;;;;15.28;75.81;99370.44;113143;1196;98821;-71
2021/09/27 07:31:39;;;;;;;27.10;9.20;;;;;;;15.33;75.85;99368.20;113154;1195;112341;-70
2021/09/27 07:34:10;;;;;;;24.10;9.10;;;;;;;15.40;75.79;99375.71;113101;1196;97477;-71
2021/09/27 07:36:38;;;;;;;34.80;9.00;;;;;;;15.45;75.87;99372.54;113040;1195;108034;-72
2021/09/27 07:39:08;;;;;;;20.70;9.20;;;;;;;15.52;75.67;99377.68;113046;1196;95031;-71
2021/09/27 07:41:37;;;;;;;22.00;9.60;;;;;;;15.58;75.69;99378.91;113090;1196;97586;-71
2021/09/27 07:44:07;;;;;;;42.60;25.60;;;;;;;15.67;75.79;99375.09;113057;1196;111932;-71
2021/09/27 07:46:41;;;;;;;25.70;11.60;;;;;;;15.78;75.86;99371.64;112797;1196;95168;-70
2021/09/27 07:49:09;;;;;;;24.80;9.50;;;;;;;15.91;75.83;99374.10;113088;1196;107076;-71
2021/09/27 07:51:37;;;;;;;22.00;9.10;;;;;;;16.01;75.97;99364.75;113100;1195;96502;-72
2021/09/27 07:54:10;;;;;;;20.10;9.50;;;;;;;16.12;75.95;99365.70;113093;1196;95107;-72
2021/09/27 07:56:37;;;;;;;20.60;9.00;;;;;;;16.24;76.04;99365.77;113123;1196;111182;-72
2021/09/27 07:59:06;;;;;;;20.90;9.90;;;;;;;16.34;75.97;99366.98;113024;1196;97629;-72
2021/09/27 08:01:36;;;;;;;26.30;9.90;;;;;;;16.45;75.78;99364.77;113048;1196;107407;-71
2021/09/27 08:04:04;;;;;;;20.40;9.00;;;;;;;16.55;75.91;99371.69;113089;1196;97576;-71
2021/09/27 08:06:32;;;;;;;27.20;15.50;;;;;;;16.64;75.78;99370.94;113069;1196;97965;-71
2021/09/27 08:09:03;;;;;;;24.60;10.90;;;;;;;16.74;75.66;99369.20;113026;1195;111185;-71
2021/09/27 08:11:33;;;;;;;21.10;8.90;;;;;;;16.83;75.67;99371.73;113105;1195;98266;-71
2021/09/27 08:14:02;;;;;;;19.50;9.00;;;;;;;16.91;75.61;99370.80;112990;1189;107524;-72
2021/09/27 08:16:31;;;;;;;23.10;9.80;;;;;;;17.01;75.63;99370.50;113094;1196;97780;-72
2021/09/27 08:19:05;;;;;;;23.70;10.00;;;;;;;17.09;75.56;99365.54;113127;1196;95456;-71
2021/09/27 08:21:35;;;;;;;19.70;8.80;;;;;;;17.18;75.66;99367.11;113155;1195;110786;-72
2021/09/27 08:24:03;;;;;;;21.10;9.30;;;;;;;17.27;75.63;99366.75;112887;1196;97660;-71
2021/09/27 08:26:33;;;;;;;20.10;8.70;;;;;;;17.44;75.53;99364.25;113039;1195;107467;-72
2021/09/27 08:29:01;;;;;;;19.60;9.00;;;;;;;17.92;75.78;99368.79;113211;1195;97566;-71
2021/09/27 08:31:29;;;;;;;26.50;16.00;;;;;;;18.63;75.72;99369.79;113065;1196;97620;-72
2021/09/27 08:33:57;;;;;;;23.10;9.40;;;;;;;19.32;75.52;99373.02;113041;1196;110935;-72
2021/09/27 08:36:27;;;;;;;21.60;8.80;;;;;;;20.00;75.34;99370.36;112950;1196;95928;-71
2021/09/27 08:38:56;;;;;;;28.50;13.50;;;;;;;20.64;74.92;99371.60;112963;1195;107497;-71
2021/09/27 08:41:51;;;;;;;25.70;10.80;;;;;;;21.22;74.77;99371.16;112989;1187;95737;-71
2021/09/27 08:44:42;;;;;;;18.70;9.30;;;;;;;21.88;74.54;99368.02;112932;1195;98224;-72
2021/09/27 08:47:31;;;;;;;17.20;7.50;;;;;;;22.45;74.48;99368.55;113018;1196;110804;-72
2021/09/27 08:50:10;;;;;;;18.70;7.90;;;;;;;22.91;74.30;99367.23;113034;1195;98250;-72
2021/09/27 08:52:42;;;;;;;18.60;7.70;;;;;;;23.22;74.37;99368.60;112825;1196;107608;-73
2021/09/27 08:55:13;;;;;;;23.40;9.20;;;;;;;23.22;74.21;99365.50;112874;1195;97623;-73
2021/09/27 08:57:50;;;;;;;21.80;8.40;;;;;;;23.06;73.73;99367.76;113059;1196;95072;-72
2021/09/27 09:00:49;;;;;;;23.20;8.90;;;;;;;23.07;73.53;99360.77;113044;1195;110696;-73
2021/09/27 09:03:26;;;;;;;21.20;8.60;;;;;;;23.21;73.78;99356.42;113047;1195;95811;-73
2021/09/27 09:06:09;;;;;;;28.90;13.80;;;;;;;23.33;73.65;99355.15;112975;1196;107562;-73
2021/09/27 09:08:47;;;;;;;22.70;9.00;;;;;;;23.54;73.79;99352.15;113079;1195;96515;-72
2021/09/27 09:11:46;;;;;;;23.20;10.00;;;;;;;23.73;73.44;99347.89;113029;1196;97989;-73
2021/09/27 09:14:17;;;;;;;22.20;8.90;;;;;;;23.88;73.33;99348.10;113070;1196;111884;-72
2021/09/27 09:16:48;;;;;;;22.80;10.60;;;;;;;24.02;73.24;99349.07;112999;1196;95763;-72
2021/09/27 09:19:23;;;;;;;61.40;51.10;;;;;;;24.27;73.14;99342.38;112994;1195;107542;-73
2021/09/27 09:22:08;;;;;;;37.40;21.70;;;;;;;24.44;72.71;99340.66;113110;1195;97749;-72
2021/09/27 09:24:40;;;;;;;24.60;11.00;;;;;;;24.52;72.17;99340.30;113147;1196;97544;-73
2021/09/27 09:27:13;;;;;;;28.40;13.30;;;;;;;24.52;71.89;99338.25;112975;1195;111192;-72
2021/09/27 09:29:42;;;;;;;;;;;;;;;24.70;71.68;99337.27;112820;1196;95252;-73
2021/09/27 09:32:25;;;;;;;42.60;26.40;;;;;;;25.00;71.56;99335.91;112635;1196;106724;-73
2021/09/27 09:35:21;;;;;;;23.20;10.70;;;;;;;25.39;71.45;99334.13;112657;1196;97793;-73
2021/09/27 09:37:54;;;;;;;22.20;10.90;;;;;;;25.58;70.93;99334.32;112658;1196;98334;-73
2021/09/27 09:40:36;;;;;;;20.50;9.10;;;;;;;25.64;70.65;99333.09;113750;1196;110989;-72
2021/09/27 09:43:04;;;;;;;19.20;7.40;;;;;;;25.67;70.59;99334.31;113116;1195;97646;-73
2021/09/27 09:45:37;;;;;;;19.30;7.60;;;;;;;25.74;70.59;99335.35;113037;1181;107524;-72
2021/09/27 09:48:24;;;;;;;21.40;8.40;;;;;;;25.75;70.28;99331.77;113085;1196;97595;-74
2021/09/27 09:50:57;;;;;;;25.20;8.90;;;;;;;25.71;69.77;99331.14;113043;1195;97547;-74
2021/09/27 09:53:33;;;;;;;20.40;7.80;;;;;;;25.67;69.88;99328.83;113107;1195;111191;-75
2021/09/27 09:56:12;;;;;;;20.70;7.30;;;;;;;25.57;69.37;99326.73;113110;1196;97932;-73
2021/09/27 09:58:46;;;;;;;42.60;30.20;;;;;;;25.44;69.06;99326.57;113108;1195;107510;-74
2021/09/27 10:01:25;;;;;;;19.60;8.60;;;;;;;25.40;68.85;99325.58;113035;1195;97615;-74
2021/09/27 10:04:09;;;;;;;23.50;7.90;;;;;;;25.44;68.71;99323.48;113083;1195;97678;-73
2021/09/27 10:06:48;;;;;;;19.10;6.80;;;;;;;25.45;68.44;99322.96;112731;1196;112634;-73
2021/09/27 10:09:56;;;;;;;17.40;6.60;;;;;;;25.45;67.79;99324.84;113130;1196;95149;-73
2021/09/27 10:12:42;;;;;;;17.70;6.80;;;;;;;25.38;67.45;99317.66;112959;1195;107267;-72
2021/09/27 10:15:34;;;;;;;17.00;6.50;;;;;;;25.30;67.58;99319.04;113137;1195;97659;-73
2021/09/27 10:18:16;;;;;;;15.60;7.00;;;;;;;25.16;67.07;99314.20;113205;1196;97681;-73
2021/09/27 10:21:11;;;;;;;14.60;5.90;;;;;;;24.97;66.57;99314.17;113129;1195;111259;-73
2021/09/27 10:23:47;;;;;;;14.60;6.30;;;;;;;24.78;66.30;99315.43;113153;1195;96141;-72
2021/09/27 10:26:38;;;;;;;15.50;6.10;;;;;;;24.67;66.19;99312.13;112863;1196;107979;-73
2021/09/27 10:29:14;;;;;;;18.40;6.10;;;;;;;24.60;66.21;99314.85;113090;1196;97688;-73
2021/09/27 10:32:03;;;;;;;13.10;6.10;;;;;;;24.53;65.85;99316.59;113069;1196;96319;-73
2021/09/27 10:34:34;;;;;;;15.30;6.20;;;;;;;24.41;64.94;99310.48;113018;1195;111147;-73
2021/09/27 10:37:15;;;;;;;12.40;5.50;;;;;;;24.34;65.17;99304.52;112907;1196;97566;-73
2021/09/27 10:39:48;;;;;;;16.40;6.50;;;;;;;24.23;64.62;99304.59;113106;1196;107575;-72
2021/09/27 10:42:22;;;;;;;14.50;6.10;;;;;;;24.13;64.57;99299.02;113061;1196;98132;-73
2021/09/27 10:44:54;;;;;;;22.70;9.30;;;;;;;24.11;64.44;99296.61;113122;1195;95674;-73
2021/09/27 10:47:32;;;;;;;16.60;6.80;;;;;;;23.99;63.85;99296.91;113031;1196;111324;-73
2021/09/27 10:50:04;;;;;;;12.20;6.10;;;;;;;23.81;63.79;99300.21;113112;1187;96485;-73
2021/09/27 10:52:45;;;;;;;20.40;6.30;;;;;;;23.67;63.47;99296.14;113041;1196;107579;-73
2021/09/27 10:55:25;;;;;;;17.70;6.50;;;;;;;23.60;63.31;99299.07;113053;1195;95106;-73
2021/09/27 10:58:04;;;;;;;15.40;6.10;;;;;;;23.58;63.28;99297.67;113137;1196;97663;-74
2021/09/27 11:00:36;;;;;;;17.30;6.50;;;;;;;23.53;63.17;99292.47;113056;1195;111021;-73
2021/09/27 11:03:33;;;;;;;15.60;6.00;;;;;;;23.43;62.89;99292.55;112885;1195;97574;-73
2021/09/27 11:06:29;;;;;;;14.70;5.90;;;;;;;23.32;62.20;99290.92;112866;1196;107801;-73
2021/09/27 11:09:12;;;;;;;15.40;6.30;;;;;;;23.23;62.34;99292.17;112844;1196;96468;-74
2021/09/27 11:11:56;;;;;;;;;;;;;;;23.21;61.98;99290.94;112889;1196;96929;-73
2021/09/27 11:14:31;;;;;;;13.00;5.20;;;;;;;23.22;62.15;99290.11;112850;1196;111221;-75
2021/09/27 11:17:23;;;;;;;27.70;14.00;;;;;;;23.30;61.81;99294.73;112866;1196;97633;-73
2021/09/27 11:20:27;;;;;;;19.10;7.20;;;;;;;23.30;61.65;99290.55;112836;1196;107582;-73
2021/09/27 11:22:54;;;;;;;14.40;5.40;;;;;;;23.27;61.41;99292.36;112966;1196;97596;-72
2021/09/27 11:25:22;;;;;;;14.40;5.70;;;;;;;23.34;61.51;99297.71;112899;1196;97667;-74
2021/09/27 11:28:11;;;;;;;16.60;6.40;;;;;;;23.41;61.51;99292.46;112852;1196;111163;-73
2021/09/27 11:30:42;;;;;;;14.60;5.60;;;;;;;23.44;61.27;99288.66;112786;1196;95090;-73
2021/09/27 11:33:31;;;;;;;18.70;6.10;;;;;;;23.39;60.85;99290.46;112811;1196;107542;-73
2021/09/27 11:36:22;;;;;;;16.00;6.40;;;;;;;23.33;60.69;99284.66;112802;1196;95061;-73
2021/09/27 11:39:10;;;;;;;16.90;5.90;;;;;;;23.24;60.62;99284.46;112869;1196;95808;-73
2021/09/27 11:41:39;;;;;;;14.10;5.90;;;;;;;23.24;60.39;99284.14;112839;1196;111228;-73
2021/09/27 11:44:31;;;;;;;18.00;6.50;;;;;;;23.22;60.13;99283.06;114031;1196;97993;-74
2021/09/27 11:47:08;;;;;;;16.30;6.50;;;;;;;23.19;60.25;99283.05;112714;1200;109003;-74
2021/09/27 11:50:27;;;;;;;16.60;5.90;;;;;;;23.19;59.89;99284.27;112701;1197;95109;-72
2021/09/27 11:53:16;;;;;;;16.00;6.00;;;;;;;23.16;60.10;99280.71;112753;1196;97597;-73
2021/09/27 11:56:11;;;;;;;13.70;5.80;;;;;;;23.11;59.74;99278.76;112756;1196;111232;-72
2021/09/27 11:59:13;;;;;;;15.90;5.80;;;;;;;23.06;59.25;99280.65;112772;1196;97626;-73
2021/09/27 12:01:56;;;;;;;13.20;5.30;;;;;;;22.99;59.41;99282.23;112791;1197;107106;-73
2021/09/27 12:04:57;;;;;;;14.90;5.70;;;;;;;22.96;59.09;99276.97;112765;1196;97283;-73
2021/09/27 12:07:36;;;;;;;14.20;5.90;;;;;;;22.95;59.35;99276.05;112810;1196;95683;-73
2021/09/27 12:10:14;;;;;;;14.60;5.80;;;;;;;22.96;59.04;99277.65;112905;1196;111222;-71
2021/09/27 12:12:51;;;;;;;15.70;5.80;;;;;;;22.99;59.17;99275.77;113453;1195;97885;-72
2021/09/27 12:15:31;;;;;;;19.40;6.90;;;;;;;22.98;58.93;99275.26;112967;1196;107549;-72